Time;durP1;ratioP1;P1;durP2;ratioP2;P2;SDS_P1;SDS_P2;PMS_P1;PMS_P2;Temp;Humidity;BMP_temperature;BMP_pressure;BME280_temperature;BME280_humidity;BME280_pressure;Samples;Min_cycle;Max_cycle;Signal;HPM_P1;HPM_P2
2023/07/05 00:00:26;;;;;;;8.65;2.95;;;15.30;99.90;;;;;;5010034;28;20042;-73
2023/07/05 00:02:52;;;;;;;8.82;3.28;;;15.30;99.90;;;;;;4998390;28;20525;-73
2023/07/05 00:05:19;;;;;;;9.15;3.38;;;15.30;99.90;;;;;;5032502;28;20133;-73
2023/07/05 00:07:44;;;;;;;8.77;3.50;;;15.20;99.90;;;;;;4994405;28;20060;-73
2023/07/05 00:10:11;;;;;;;11.70;3.58;;;15.20;99.90;;;;;;5012526;28;20041;-74
2023/07/05 00:12:37;;;;;;;6.90;3.13;;;15.20;99.90;;;;;;5015243;28;20391;-73
2023/07/05 00:15:04;;;;;;;11.35;3.65;;;15.20;99.90;;;;;;5015539;28;20111;-73
2023/07/05 00:17:34;;;;;;;9.82;3.22;;;15.20;99.90;;;;;;5015426;28;20048;-73
2023/07/05 00:20:00;;;;;;;12.18;3.63;;;15.20;99.90;;;;;;5014903;28;20045;-73
2023/07/05 00:22:26;;;;;;;8.68;3.50;;;15.10;99.90;;;;;;4995847;28;20060;-72
2023/07/05 00:24:53;;;;;;;11.05;3.33;;;15.20;99.90;;;;;;5015778;28;20029;-72
2023/07/05 00:27:20;;;;;;;15.20;4.38;;;15.10;99.90;;;;;;5019559;28;20049;-73
2023/07/05 00:29:46;;;;;;;10.80;3.50;;;15.10;99.90;;;;;;5013472;28;20041;-72
2023/07/05 00:32:12;;;;;;;11.52;4.45;;;15.10;99.90;;;;;;5013232;28;20041;-73
2023/07/05 00:34:38;;;;;;;11.57;3.85;;;15.10;99.90;;;;;;5011023;28;20041;-72
2023/07/05 00:37:03;;;;;;;11.63;3.65;;;15.10;99.90;;;;;;5015384;28;20703;-73
2023/07/05 00:39:29;;;;;;;10.73;3.75;;;15.10;99.90;;;;;;5012648;28;20095;-72
2023/07/05 00:41:56;;;;;;;14.57;4.47;;;15.10;99.90;;;;;;5017205;28;20045;-73
2023/07/05 00:44:21;;;;;;;12.70;4.00;;;15.10;99.90;;;;;;5013810;28;20110;-73
2023/07/05 00:46:53;;;;;;;13.80;3.83;;;15.00;99.90;;;;;;5017008;28;20041;-72
2023/07/05 00:49:20;;;;;;;;;;;15.00;99.90;;;;;;5014125;28;20449;-72
2023/07/05 00:51:58;;;;;;;11.85;4.18;;;15.00;99.90;;;;;;5018291;28;19921;-72
2023/07/05 00:54:34;;;;;;;10.07;4.80;;;15.00;99.90;;;;;;5014405;28;20514;-72
2023/07/05 00:57:02;;;;;;;11.05;4.57;;;15.00;99.90;;;;;;5015252;28;20045;-72
2023/07/05 00:59:33;;;;;;;12.73;4.55;;;14.90;99.90;;;;;;5017971;28;20452;-72
2023/07/05 01:01:58;;;;;;;10.45;4.35;;;14.90;99.90;;;;;;5016018;28;20045;-71
2023/07/05 01:04:24;;;;;;;13.05;4.70;;;14.90;99.90;;;;;;5012463;28;20511;-71
2023/07/05 01:06:50;;;;;;;11.80;4.47;;;14.90;99.90;;;;;;5017191;28;20046;-72
2023/07/05 01:09:17;;;;;;;11.23;4.65;;;14.80;99.90;;;;;;4995643;28;20124;-72
2023/07/05 01:11:55;;;;;;;10.88;5.05;;;14.90;99.90;;;;;;5016100;28;20042;-72
2023/07/05 01:14:43;;;;;;;14.90;5.10;;;14.90;99.90;;;;;;5015427;28;20058;-72
2023/07/05 01:17:19;;;;;;;11.00;4.57;;;14.90;99.90;;;;;;4998916;28;20850;-71
2023/07/05 01:20:28;;;;;;;12.35;4.55;;;14.90;99.90;;;;;;5012926;28;20063;-72
2023/07/05 01:23:02;;;;;;;14.65;4.80;;;14.90;99.90;;;;;;5020300;28;20045;-72
2023/07/05 01:26:01;;;;;;;11.65;4.57;;;14.80;99.90;;;;;;5013692;28;20084;-72
2023/07/05 01:28:29;;;;;;;14.90;4.78;;;14.90;99.90;;;;;;5018901;28;20073;-72
2023/07/05 01:31:16;;;;;;;13.60;5.18;;;14.90;99.90;;;;;;5017715;28;20396;-72
2023/07/05 01:33:58;;;;;;;15.10;4.78;;;14.90;99.90;;;;;;5015002;28;20034;-72
2023/07/05 01:36:24;;;;;;;13.75;4.90;;;14.90;99.90;;;;;;5013536;28;20041;-72
2023/07/05 01:38:50;;;;;;;15.20;5.50;;;14.90;99.90;;;;;;5014445;28;20128;-72
2023/07/05 01:41:15;;;;;;;14.55;5.40;;;14.90;99.90;;;;;;5013526;28;20439;-71
2023/07/05 01:43:45;;;;;;;13.20;4.70;;;14.80;99.90;;;;;;4998114;28;20054;-72
2023/07/05 01:46:23;;;;;;;13.50;5.35;;;14.90;99.90;;;;;;4998603;28;20042;-72
2023/07/05 01:49:01;;;;;;;13.50;5.68;;;14.80;99.90;;;;;;5002610;28;20042;-72
2023/07/05 01:51:41;;;;;;;12.68;5.68;;;14.90;99.90;;;;;;4999467;28;20406;-72
2023/07/05 01:54:10;;;;;;;13.17;5.47;;;14.80;99.90;;;;;;5013679;28;20034;-72
2023/07/05 01:56:49;;;;;;;16.80;5.97;;;14.80;99.90;;;;;;5018506;28;20109;-72
2023/07/05 01:59:18;;;;;;;16.27;7.38;;;14.80;99.90;;;;;;5015613;28;20756;-72
2023/07/05 02:01:45;;;;;;;15.68;6.10;;;14.80;99.90;;;;;;5019593;28;20153;-72
2023/07/05 02:04:13;;;;;;;16.48;6.07;;;14.70;99.90;;;;;;5021662;28;20164;-72
2023/07/05 02:06:40;;;;;;;11.30;6.22;;;14.70;99.90;;;;;;5016170;28;20049;-72
2023/07/05 02:09:07;;;;;;;19.20;7.22;;;14.70;99.90;;;;;;5018562;28;20446;-72
2023/07/05 02:11:32;;;;;;;12.57;6.63;;;14.70;99.90;;;;;;5005109;28;20061;-73
2023/07/05 02:13:58;;;;;;;14.07;6.53;;;14.70;99.90;;;;;;5018116;28;20052;-72
2023/07/05 02:16:24;;;;;;;17.90;7.60;;;14.70;99.90;;;;;;5023001;28;20056;-71
2023/07/05 02:18:50;;;;;;;13.43;6.68;;;14.70;99.90;;;;;;5020014;28;20128;-71
2023/07/05 02:21:16;;;;;;;16.63;7.57;;;14.70;99.90;;;;;;5022385;28;20045;-71
2023/07/05 02:23:41;;;;;;;16.02;7.22;;;14.70;99.90;;;;;;5021071;28;20045;-71
2023/07/05 02:26:07;;;;;;;15.60;7.50;;;14.70;99.90;;;;;;5001334;28;20482;-72
2023/07/05 02:28:34;;;;;;;14.65;7.43;;;14.70;99.90;;;;;;5021270;28;20118;-71
2023/07/05 02:31:11;;;;;;;14.95;7.75;;;14.60;99.90;;;;;;5017155;28;20418;-72
2023/07/05 02:33:39;;;;;;;17.52;8.20;;;14.70;99.90;;;;;;5019431;28;20037;-72
2023/07/05 02:36:09;;;;;;;14.63;8.00;;;14.70;99.90;;;;;;5018595;28;20084;-72
2023/07/05 02:38:35;;;;;;;15.15;8.00;;;14.60;99.90;;;;;;5018319;28;20052;-72
2023/07/05 02:41:01;;;;;;;17.17;8.68;;;14.60;99.90;;;;;;5020234;28;20394;-71
2023/07/05 02:43:27;;;;;;;20.40;9.63;;;14.60;99.90;;;;;;5018673;28;20041;-71
2023/07/05 02:45:52;;;;;;;21.40;9.93;;;14.60;99.90;;;;;;5016155;28;20529;-72
2023/07/05 02:48:18;;;;;;;18.88;9.73;;;14.60;99.90;;;;;;5016900;28;20045;-71
2023/07/05 02:50:44;;;;;;;23.98;9.73;;;14.60;99.90;;;;;;5017952;28;20156;-71
2023/07/05 02:53:09;;;;;;;21.30;10.75;;;14.60;99.90;;;;;;5018860;28;20116;-72
2023/07/05 02:55:35;;;;;;;18.02;10.43;;;14.60;99.90;;;;;;5019834;28;20424;-72
2023/07/05 02:58:01;;;;;;;18.98;10.18;;;14.60;99.90;;;;;;5018055;28;20038;-73
2023/07/05 03:00:29;;;;;;;22.88;11.27;;;14.60;99.90;;;;;;4999435;28;20049;-72
2023/07/05 03:02:56;;;;;;;22.83;11.05;;;14.60;99.90;;;;;;5022026;28;20077;-72
2023/07/05 03:05:22;;;;;;;17.55;10.93;;;14.60;99.90;;;;;;5017416;28;20042;-73
2023/07/05 03:07:48;;;;;;;21.02;10.88;;;14.60;99.90;;;;;;5019499;28;20530;-72
2023/07/05 03:10:13;;;;;;;17.90;10.93;;;14.60;99.90;;;;;;4999710;28;20563;-72
2023/07/05 03:12:40;;;;;;;20.13;11.38;;;14.60;99.90;;;;;;5019138;28;20048;-72
2023/07/05 03:15:06;;;;;;;18.98;10.88;;;14.50;99.90;;;;;;5020714;28;20860;-72
2023/07/05 03:17:33;;;;;;;21.42;11.45;;;14.50;99.90;;;;;;5018450;28;20045;-72
2023/07/05 03:19:59;;;;;;;16.20;10.07;;;14.50;99.90;;;;;;5016979;28;20509;-73
2023/07/05 03:22:28;;;;;;;19.88;10.48;;;14.50;99.90;;;;;;5013765;28;20109;-73
2023/07/05 03:24:54;;;;;;;15.98;10.25;;;14.60;99.90;;;;;;5020006;28;20049;-73
2023/07/05 03:27:20;;;;;;;23.10;11.32;;;14.50;99.90;;;;;;5017499;28;20042;-73
2023/07/05 03:29:47;;;;;;;15.50;9.45;;;14.50;99.90;;;;;;5016443;28;20052;-72
2023/07/05 03:32:14;;;;;;;17.17;10.88;;;14.50;99.90;;;;;;5013765;28;20144;-72
2023/07/05 03:34:39;;;;;;;17.50;10.18;;;14.50;99.90;;;;;;5018160;28;20049;-72
2023/07/05 03:37:06;;;;;;;17.55;9.77;;;14.60;99.90;;;;;;5019872;28;20073;-72
2023/07/05 03:39:31;;;;;;;18.73;9.85;;;14.60;99.90;;;;;;5020990;28;20037;-72
2023/07/05 03:41:57;;;;;;;18.02;10.45;;;14.60;99.90;;;;;;5017403;28;20858;-72
2023/07/05 03:44:24;;;;;;;15.55;9.35;;;14.60;99.90;;;;;;5015433;28;20431;-72
2023/07/05 03:46:50;;;;;;;15.93;9.85;;;14.60;99.90;;;;;;5016252;28;20133;-73
2023/07/05 03:49:17;;;;;;;20.73;10.80;;;14.60;99.90;;;;;;5018132;28;20091;-73
2023/07/05 03:51:43;;;;;;;15.75;9.10;;;14.60;99.90;;;;;;5013658;28;20097;-73
2023/07/05 03:54:09;;;;;;;17.38;10.40;;;14.60;99.90;;;;;;5012599;28;20141;-72
2023/07/05 03:56:35;;;;;;;14.18;9.73;;;14.60;99.90;;;;;;5017546;28;20421;-72
2023/07/05 03:59:01;;;;;;;16.25;10.32;;;14.60;99.90;;;;;;5018309;28;20099;-73
2023/07/05 04:01:29;;;;;;;19.55;10.60;;;14.60;99.90;;;;;;5018650;28;20045;-72
2023/07/05 04:04:00;;;;;;;14.90;10.23;;;14.70;99.90;;;;;;5014936;28;20084;-72
2023/07/05 04:06:28;;;;;;;13.63;9.20;;;14.70;99.90;;;;;;4998471;28;20056;-73
2023/07/05 04:08:55;;;;;;;20.55;10.23;;;14.70;99.90;;;;;;5015850;28;20061;-70
2023/07/05 04:11:21;;;;;;;15.23;9.52;;;14.70;99.90;;;;;;4997971;28;20037;-70
2023/07/05 04:13:48;;;;;;;14.10;8.65;;;14.70;99.90;;;;;;5017705;28;20049;-70
2023/07/05 04:16:18;;;;;;;15.43;8.73;;;14.70;99.90;;;;;;5019225;28;20045;-71
2023/07/05 04:18:45;;;;;;;13.10;8.55;;;14.60;99.90;;;;;;5015267;28;20917;-70
2023/07/05 04:21:12;;;;;;;17.10;9.43;;;14.80;99.90;;;;;;5017169;28;20435;-70
2023/07/05 04:23:39;;;;;;;17.63;8.52;;;14.80;99.90;;;;;;5017252;28;20084;-69
2023/07/05 04:26:12;;;;;;;13.13;9.35;;;14.80;99.90;;;;;;5000005;28;20050;-70
2023/07/05 04:28:39;;;;;;;17.20;9.35;;;14.90;99.90;;;;;;5016109;28;20052;-70
2023/07/05 04:31:09;;;;;;;15.85;9.15;;;14.90;99.90;;;;;;5015603;28;20644;-70
2023/07/05 04:33:35;;;;;;;13.18;8.93;;;14.90;99.90;;;;;;5015687;28;20510;-70
2023/07/05 04:36:02;;;;;;;14.82;8.73;;;14.90;99.90;;;;;;5014546;28;20181;-71
2023/07/05 04:38:28;;;;;;;17.10;9.05;;;14.90;99.90;;;;;;5008646;28;20498;-70
2023/07/05 04:40:55;;;;;;;13.45;9.15;;;14.90;99.90;;;;;;5013410;28;20095;-70
2023/07/05 04:43:21;;;;;;;14.18;8.85;;;15.00;99.90;;;;;;5016617;28;20994;-70
2023/07/05 04:45:51;;;;;;;15.80;8.93;;;15.00;99.90;;;;;;5008686;28;20063;-71
2023/07/05 04:48:18;;;;;;;15.35;8.27;;;15.00;99.90;;;;;;5009475;28;20684;-70
2023/07/05 04:50:44;;;;;;;12.15;7.15;;;15.00;99.90;;;;;;5010982;28;21938;-70
2023/07/05 04:53:10;;;;;;;13.90;8.25;;;15.00;99.90;;;;;;5010869;28;21008;-70
2023/07/05 04:55:36;;;;;;;12.05;7.38;;;15.00;99.90;;;;;;5008221;28;20064;-69
2023/07/05 04:58:03;;;;;;;12.43;6.85;;;15.00;99.90;;;;;;5008506;28;20491;-70
2023/07/05 05:00:29;;;;;;;14.45;6.72;;;15.00;99.90;;;;;;5009904;28;20119;-70
2023/07/05 05:02:55;;;;;;;12.77;5.72;;;15.00;99.90;;;;;;5016573;28;20034;-70
2023/07/05 05:05:21;;;;;;;11.10;5.20;;;15.00;99.90;;;;;;5004469;28;20087;-70
2023/07/05 05:07:46;;;;;;;14.10;4.45;;;15.00;99.90;;;;;;5014387;28;20096;-70
2023/07/05 05:10:12;;;;;;;12.90;4.68;;;15.00;99.90;;;;;;5012307;28;20044;-70
2023/07/05 05:12:38;;;;;;;11.23;4.50;;;14.90;99.90;;;;;;5010347;28;20049;-69
2023/07/05 05:15:04;;;;;;;9.07;4.05;;;14.90;99.90;;;;;;4995634;28;20049;-70
2023/07/05 05:17:30;;;;;;;8.38;4.55;;;14.80;99.90;;;;;;5010932;28;20445;-69
2023/07/05 05:19:56;;;;;;;11.18;4.38;;;14.80;99.90;;;;;;5010554;28;20165;-70
2023/07/05 05:22:22;;;;;;;9.02;3.75;;;14.90;99.90;;;;;;5014013;28;20399;-70
2023/07/05 05:24:47;;;;;;;10.02;3.85;;;15.10;99.90;;;;;;5004652;28;20419;-70
2023/07/05 05:27:13;;;;;;;9.48;3.75;;;15.20;99.90;;;;;;5013966;28;20671;-70
2023/07/05 05:29:39;;;;;;;8.23;3.45;;;15.20;99.90;;;;;;5016829;28;20049;-70
2023/07/05 05:32:05;;;;;;;9.63;4.38;;;15.10;99.90;;;;;;5020142;28;20508;-70
2023/07/05 05:34:31;;;;;;;13.25;4.50;;;15.10;99.90;;;;;;5018180;28;20096;-71
2023/07/05 05:36:57;;;;;;;9.68;4.03;;;15.00;99.90;;;;;;5018041;28;20073;-71
2023/07/05 05:39:26;;;;;;;10.95;4.03;;;14.90;99.90;;;;;;5015065;28;20049;-72
2023/07/05 05:41:51;;;;;;;9.82;4.25;;;14.90;99.90;;;;;;5019675;28;20132;-71
2023/07/05 05:44:18;;;;;;;8.18;4.07;;;14.80;99.90;;;;;;5019923;28;20894;-72
2023/07/05 05:46:43;;;;;;;7.90;4.03;;;14.80;99.90;;;;;;5020020;28;20153;-72
2023/07/05 05:49:09;;;;;;;8.02;4.35;;;14.80;99.90;;;;;;5028790;28;20128;-72
2023/07/05 05:51:35;;;;;;;7.38;4.20;;;14.80;99.90;;;;;;5024577;28;20436;-72
2023/07/05 05:54:01;;;;;;;8.25;4.40;;;14.80;99.90;;;;;;5022557;28;20077;-71
2023/07/05 05:56:26;;;;;;;8.95;4.47;;;14.80;99.90;;;;;;5015485;28;20096;-71
2023/07/05 05:58:52;;;;;;;10.40;4.75;;;14.80;99.90;;;;;;5013915;28;20073;-71
2023/07/05 06:01:20;;;;;;;8.65;4.15;;;14.80;99.90;;;;;;5011268;28;20037;-71
2023/07/05 06:03:47;;;;;;;9.80;4.95;;;14.70;99.90;;;;;;4991690;28;20087;-71
2023/07/05 06:06:12;;;;;;;7.93;3.92;;;14.70;99.90;;;;;;5010307;28;20103;-72
2023/07/05 06:08:38;;;;;;;7.43;4.03;;;14.60;99.90;;;;;;5009910;28;20137;-71
2023/07/05 06:11:04;;;;;;;9.02;4.18;;;14.60;99.90;;;;;;5009387;28;20041;-71
2023/07/05 06:13:31;;;;;;;11.95;4.10;;;14.60;99.90;;;;;;5009471;28;20502;-72
2023/07/05 06:16:03;;;;;;;7.65;3.80;;;14.60;99.90;;;;;;5007716;28;20053;-71
2023/07/05 06:18:29;;;;;;;9.45;4.25;;;14.60;99.90;;;;;;5009982;28;20077;-72
2023/07/05 06:20:55;;;;;;;7.65;4.20;;;14.50;99.90;;;;;;5010392;28;20049;-71
2023/07/05 06:23:21;;;;;;;9.23;4.25;;;14.50;99.90;;;;;;5013503;28;20037;-72
2023/07/05 06:25:48;;;;;;;9.50;4.22;;;14.50;99.90;;;;;;5010646;28;20056;-71
2023/07/05 06:28:18;;;;;;;10.43;5.13;;;14.50;99.90;;;;;;5010050;28;20034;-72
2023/07/05 06:30:47;;;;;;;7.65;4.10;;;14.50;99.90;;;;;;5009912;28;20060;-72
2023/07/05 06:33:14;;;;;;;7.97;3.83;;;14.50;99.90;;;;;;5008614;28;20042;-72
2023/07/05 06:35:46;;;;;;;8.18;3.80;;;14.50;99.90;;;;;;5009326;28;20120;-72
2023/07/05 06:38:12;;;;;;;7.47;3.90;;;14.50;99.90;;;;;;4991299;28;20034;-71
2023/07/05 06:40:37;;;;;;;8.13;3.97;;;14.50;99.90;;;;;;4986880;28;20046;-72
2023/07/05 06:43:04;;;;;;;8.35;3.70;;;14.50;99.90;;;;;;5013378;28;20064;-72
2023/07/05 06:45:30;;;;;;;7.32;3.53;;;14.60;99.90;;;;;;4998695;28;20056;-73
2023/07/05 06:47:56;;;;;;;11.48;4.10;;;14.60;99.90;;;;;;5011146;28;20152;-72
2023/07/05 06:50:22;;;;;;;7.18;3.45;;;14.70;99.90;;;;;;5015378;28;20133;-73
2023/07/05 06:52:48;;;;;;;7.72;3.30;;;14.70;99.90;;;;;;4980908;28;20061;-73
2023/07/05 06:55:13;;;;;;;8.25;3.33;;;14.70;99.90;;;;;;4996023;28;20037;-73
2023/07/05 06:57:39;;;;;;;6.25;2.75;;;14.80;99.90;;;;;;5010298;28;20504;-72
2023/07/05 07:00:07;;;;;;;8.25;3.30;;;14.80;99.90;;;;;;5017537;28;20227;-73
2023/07/05 07:02:33;;;;;;;7.78;3.25;;;14.90;99.90;;;;;;5010642;28;20050;-71
2023/07/05 07:04:59;;;;;;;6.53;3.10;;;14.90;99.90;;;;;;5012265;28;20052;-72
2023/07/05 07:07:24;;;;;;;9.95;3.03;;;14.90;99.90;;;;;;5012251;28;20037;-73
2023/07/05 07:09:50;;;;;;;7.38;2.80;;;14.90;99.90;;;;;;5012028;28;20172;-73
2023/07/05 07:12:16;;;;;;;8.05;2.95;;;14.90;99.90;;;;;;5009002;28;20065;-73
2023/07/05 07:14:42;;;;;;;6.72;3.20;;;14.90;99.90;;;;;;5015690;28;20422;-72
2023/07/05 07:17:07;;;;;;;11.38;3.80;;;14.90;99.90;;;;;;5010479;28;20077;-73
2023/07/05 07:19:33;;;;;;;8.35;3.28;;;14.80;99.90;;;;;;5005909;28;20055;-74
2023/07/05 07:21:59;;;;;;;10.05;3.58;;;14.90;99.90;;;;;;5014880;28;20048;-73
2023/07/05 07:24:25;;;;;;;8.15;3.17;;;14.90;99.90;;;;;;5019996;28;20045;-74
2023/07/05 07:26:51;;;;;;;7.60;3.03;;;14.90;99.90;;;;;;5013214;28;21026;-73
2023/07/05 07:29:17;;;;;;;6.45;2.78;;;14.90;99.90;;;;;;5020194;28;20077;-74
2023/07/05 07:31:43;;;;;;;12.13;2.97;;;14.90;99.90;;;;;;5022261;28;20196;-74
2023/07/05 07:34:09;;;;;;;6.78;2.47;;;14.90;99.90;;;;;;5019158;28;20058;-75
2023/07/05 07:36:36;;;;;;;5.65;2.10;;;14.90;99.90;;;;;;5012151;28;20045;-74
2023/07/05 07:39:02;;;;;;;9.13;2.20;;;14.90;99.90;;;;;;5022362;28;20124;-73
2023/07/05 07:41:31;;;;;;;5.18;2.30;;;14.90;99.90;;;;;;5020118;28;20556;-72
2023/07/05 07:44:02;;;;;;;7.43;2.83;;;14.80;99.90;;;;;;5022903;28;20057;-73
2023/07/05 07:46:29;;;;;;;;;;;14.80;99.90;;;;;;5022837;28;20060;-73
2023/07/05 07:48:58;;;;;;;7.72;2.83;;;14.80;99.90;;;;;;5015519;28;20019;-73
2023/07/05 07:51:27;;;;;;;6.80;2.65;;;14.70;99.90;;;;;;5018360;28;20056;-72
2023/07/05 07:53:53;;;;;;;4.03;1.42;;;14.60;99.90;;;;;;5010821;28;20049;-72
2023/07/05 07:56:20;;;;;;;3.53;1.23;;;14.50;99.90;;;;;;5023885;28;20049;-72
2023/07/05 07:58:50;;;;;;;3.33;1.30;;;14.30;99.90;;;;;;5020719;28;20837;-71
2023/07/05 08:01:27;;;;;;;6.35;1.90;;;14.10;99.90;;;;;;5027431;28;20118;-72
2023/07/05 08:03:55;;;;;;;4.47;1.10;;;13.90;99.90;;;;;;5021381;28;20468;-71
2023/07/05 08:06:31;;;;;;;3.78;1.20;;;13.70;99.90;;;;;;5021267;28;20041;-71
2023/07/05 08:08:57;;;;;;;6.68;0.85;;;13.50;99.90;;;;;;5020647;28;20063;-72
2023/07/05 08:11:23;;;;;;;7.07;1.13;;;13.30;99.90;;;;;;5001548;28;20128;-72
2023/07/05 08:13:50;;;;;;;3.83;1.15;;;13.20;99.90;;;;;;5014033;28;20054;-72
2023/07/05 08:16:16;;;;;;;3.78;1.10;;;13.10;99.90;;;;;;4986935;28;20037;-72
2023/07/05 08:18:44;;;;;;;3.85;1.10;;;13.00;99.90;;;;;;5014149;28;20045;-71
2023/07/05 08:21:12;;;;;;;4.82;1.08;;;12.90;99.90;;;;;;4999320;28;20723;-73
2023/07/05 08:23:39;;;;;;;4.40;1.20;;;12.80;99.90;;;;;;5015910;28;20041;-73
2023/07/05 08:26:04;;;;;;;2.90;0.95;;;12.80;99.90;;;;;;5010563;28;20108;-73
2023/07/05 08:28:30;;;;;;;5.28;1.00;;;12.70;99.90;;;;;;4988373;28;20049;-73
2023/07/05 08:30:58;;;;;;;4.47;1.15;;;12.60;99.90;;;;;;5010580;28;20049;-71
2023/07/05 08:33:26;;;;;;;2.35;0.90;;;12.50;99.90;;;;;;5015084;28;20049;-72
2023/07/05 08:36:04;;;;;;;1.90;0.90;;;12.50;99.90;;;;;;5013324;28;20504;-70
2023/07/05 08:38:30;;;;;;;5.60;1.15;;;12.40;99.90;;;;;;5014875;28;20041;-71
2023/07/05 08:41:06;;;;;;;5.38;1.02;;;12.40;99.90;;;;;;4998357;28;20049;-71
2023/07/05 08:43:41;;;;;;;2.33;0.70;;;12.30;99.90;;;;;;5010263;28;20642;-72
2023/07/05 08:46:11;;;;;;;6.22;0.98;;;12.30;99.90;;;;;;5010342;28;20060;-72
2023/07/05 08:48:37;;;;;;;2.63;0.80;;;12.30;99.90;;;;;;4998444;28;20068;-72
2023/07/05 08:51:04;;;;;;;2.30;0.70;;;12.30;99.90;;;;;;5016115;28;20041;-71
2023/07/05 08:53:34;;;;;;;3.53;0.90;;;12.20;99.90;;;;;;5014831;28;20140;-70
2023/07/05 08:56:09;;;;;;;4.82;1.10;;;12.20;99.90;;;;;;5016004;28;20045;-71
2023/07/05 08:58:48;;;;;;;6.30;1.48;;;12.20;99.90;;;;;;5004832;28;20084;-71
2023/07/05 09:01:36;;;;;;;7.75;1.50;;;12.20;99.90;;;;;;5008262;28;20065;-70
2023/07/05 09:04:02;;;;;;;4.78;1.20;;;12.20;99.90;;;;;;5017222;28;20192;-71
2023/07/05 09:06:49;;;;;;;6.80;1.23;;;12.20;99.90;;;;;;5019645;28;20037;-70
2023/07/05 09:09:31;;;;;;;8.75;1.60;;;12.20;99.90;;;;;;5015389;28;20053;-70
2023/07/05 09:12:07;;;;;;;10.98;2.05;;;12.20;99.90;;;;;;5017676;28;20132;-72
2023/07/05 09:15:01;;;;;;;11.35;2.05;;;12.30;99.90;;;;;;5000308;28;20170;-70
2023/07/05 09:17:51;;;;;;;10.50;1.90;;;12.30;99.90;;;;;;5018037;28;20227;-70
2023/07/05 09:20:32;;;;;;;12.05;2.28;;;12.40;99.90;;;;;;5015470;28;20101;-70
2023/07/05 09:23:04;;;;;;;9.88;1.85;;;12.40;99.90;;;;;;5017492;28;20045;-71
2023/07/05 09:25:32;;;;;;;5.95;1.42;;;12.50;99.90;;;;;;5017215;28;20041;-70
2023/07/05 09:28:52;;;;;;;7.40;1.13;;;12.50;99.90;;;;;;5035337;28;20125;-72
2023/07/05 09:31:27;;;;;;;6.32;1.20;;;12.60;99.90;;;;;;4997697;28;20422;-70
2023/07/05 09:34:04;;;;;;;7.30;0.85;;;12.70;99.90;;;;;;5016657;28;20261;-71
2023/07/05 09:36:30;;;;;;;5.47;1.00;;;12.70;99.90;;;;;;5020340;28;20088;-71
2023/07/05 09:39:03;;;;;;;8.13;1.17;;;12.80;99.90;;;;;;5020319;28;20041;-71
2023/07/05 09:41:46;;;;;;;9.15;0.90;;;12.90;99.90;;;;;;5016066;28;20056;-72
2023/07/05 09:44:15;;;;;;;7.32;1.05;;;12.90;99.90;;;;;;5022066;28;20120;-72
2023/07/05 09:46:42;;;;;;;8.20;0.70;;;13.00;99.90;;;;;;5016571;28;20087;-71
2023/07/05 09:49:14;;;;;;;6.30;0.70;;;13.00;99.90;;;;;;5018295;28;20747;-70
2023/07/05 09:51:42;;;;;;;7.00;0.85;;;13.10;99.90;;;;;;5007455;28;20041;-71
2023/07/05 09:54:20;;;;;;;2.95;0.63;;;13.10;99.90;;;;;;5010962;28;20079;-73
2023/07/05 09:56:56;;;;;;;5.85;1.00;;;13.20;99.90;;;;;;5007631;28;20061;-71
2023/07/05 09:59:22;;;;;;;6.00;1.13;;;13.20;99.90;;;;;;5009307;28;20069;-72
2023/07/05 10:01:55;;;;;;;6.03;0.50;;;13.30;99.90;;;;;;5010394;28;20774;-71
2023/07/05 10:04:26;;;;;;;2.30;0.55;;;13.30;99.90;;;;;;5009953;28;20141;-74
2023/07/05 10:06:53;;;;;;;6.47;0.68;;;13.30;99.90;;;;;;5013073;28;20080;-71
2023/07/05 10:09:22;;;;;;;6.88;0.55;;;13.40;99.90;;;;;;5004450;28;20044;-72
2023/07/05 10:11:52;;;;;;;4.13;0.57;;;13.40;99.90;;;;;;5013558;28;20522;-72
2023/07/05 10:14:27;;;;;;;5.00;0.60;;;13.50;99.90;;;;;;5009175;28;20053;-72
2023/07/05 10:16:54;;;;;;;3.50;0.70;;;13.70;99.90;;;;;;5003933;28;20456;-74
2023/07/05 10:19:42;;;;;;;5.28;0.80;;;13.80;99.90;;;;;;5004679;28;20565;-72
2023/07/05 10:22:13;;;;;;;5.32;0.80;;;14.00;99.90;;;;;;5006223;28;20679;-72
2023/07/05 10:24:43;;;;;;;2.67;0.73;;;14.00;99.90;;;;;;5012278;28;20041;-73
2023/07/05 10:27:24;;;;;;;7.37;0.63;;;14.00;99.90;;;;;;5007627;28;20800;-73
2023/07/05 10:30:00;;;;;;;3.38;1.10;;;14.00;99.90;;;;;;5005303;28;21747;-69
2023/07/05 10:32:27;;;;;;;2.53;0.68;;;14.00;99.90;;;;;;4986638;28;20514;-73
2023/07/05 10:34:55;;;;;;;5.40;0.70;;;14.10;99.90;;;;;;5010010;28;20068;-72
2023/07/05 10:37:31;;;;;;;3.15;0.63;;;14.20;99.90;;;;;;5007571;28;20450;-71
2023/07/05 10:39:57;;;;;;;1.90;0.70;;;14.30;99.90;;;;;;5004112;28;20906;-73
2023/07/05 10:42:25;;;;;;;3.17;0.93;;;14.40;99.90;;;;;;5006399;28;20132;-72
2023/07/05 10:44:52;;;;;;;2.95;0.70;;;14.50;99.90;;;;;;5007355;28;20057;-74
2023/07/05 10:47:18;;;;;;;1.25;0.40;;;14.70;99.90;;;;;;5003301;28;20847;-71
2023/07/05 10:49:47;;;;;;;3.97;0.70;;;14.70;99.90;;;;;;5006190;28;20053;-72
2023/07/05 10:52:16;;;;;;;6.85;0.80;;;14.70;99.90;;;;;;5006297;28;20083;-72
2023/07/05 10:55:14;;;;;;;6.35;1.10;;;14.80;99.90;;;;;;5007202;28;20137;-72
2023/07/05 10:57:50;;;;;;;2.55;0.68;;;14.90;99.90;;;;;;5007830;28;20085;-72
2023/07/05 11:00:41;;;;;;;2.63;0.65;;;15.00;99.90;;;;;;5007846;28;20068;-71
2023/07/05 11:03:15;;;;;;;;;;;15.10;99.90;;;;;;4989210;28;20049;-71
2023/07/05 11:05:47;;;;;;;3.30;0.80;;;15.30;99.90;;;;;;5009489;28;19925;-72
2023/07/05 11:08:40;;;;;;;3.53;0.90;;;15.50;99.90;;;;;;5006501;28;20132;-71
2023/07/05 11:11:15;;;;;;;2.78;0.82;;;15.60;99.90;;;;;;4996416;28;20054;-72
2023/07/05 11:13:42;;;;;;;3.88;0.90;;;15.70;99.90;;;;;;5005677;28;20107;-70
2023/07/05 11:16:14;;;;;;;3.30;0.70;;;15.80;99.90;;;;;;5007818;28;20045;-71
2023/07/05 11:18:41;;;;;;;3.92;0.90;;;15.80;99.90;;;;;;4990156;28;20176;-71
2023/07/05 11:21:40;;;;;;;5.53;1.00;;;15.90;99.90;;;;;;4990851;28;20045;-71
2023/07/05 11:24:08;;;;;;;5.47;1.10;;;16.00;99.90;;;;;;5008305;28;20045;-72
2023/07/05 11:26:39;;;;;;;5.75;0.98;;;16.10;99.90;;;;;;4989017;28;20685;-71
2023/07/05 11:29:26;;;;;;;11.32;1.58;;;16.20;99.90;;;;;;4990171;28;20038;-71
2023/07/05 11:31:52;;;;;;;8.32;1.20;;;16.30;99.90;;;;;;4992976;28;20053;-71
2023/07/05 11:34:21;;;;;;;6.93;1.40;;;16.30;99.90;;;;;;5006680;28;20053;-71
2023/07/05 11:37:06;;;;;;;7.25;1.48;;;16.40;99.90;;;;;;5010803;28;20045;-72
2023/07/05 11:39:36;;;;;;;7.85;1.58;;;16.30;99.90;;;;;;5008802;28;20053;-71
2023/07/05 11:42:15;;;;;;;5.93;1.10;;;16.30;99.90;;;;;;5008682;28;20558;-71
2023/07/05 11:44:48;;;;;;;7.25;1.30;;;16.40;99.90;;;;;;5009959;28;20497;-72
2023/07/05 11:47:22;;;;;;;6.32;1.10;;;16.40;99.90;;;;;;4998099;28;20049;-71
2023/07/05 11:50:13;;;;;;;5.75;1.42;;;16.40;99.90;;;;;;4998468;28;20057;-71
2023/07/05 11:53:12;;;;;;;9.15;1.38;;;16.40;99.90;;;;;;4995772;28;20099;-70
2023/07/05 11:55:40;;;;;;;8.73;1.17;;;16.50;99.90;;;;;;5018331;28;20038;-73
2023/07/05 11:58:22;;;;;;;8.02;1.30;;;16.50;99.90;;;;;;5000114;28;20042;-72
2023/07/05 12:00:55;;;;;;;11.90;1.85;;;16.50;99.90;;;;;;5006768;28;20128;-72
2023/07/05 12:03:23;;;;;;;10.27;1.85;;;16.50;99.90;;;;;;4994904;28;20045;-73
2023/07/05 12:06:06;;;;;;;12.40;2.28;;;16.40;99.90;;;;;;5007413;28;20084;-73
2023/07/05 12:08:39;;;;;;;14.18;2.38;;;16.20;99.90;;;;;;5003872;28;20051;-72
2023/07/05 12:11:05;;;;;;;11.82;2.03;;;16.00;99.90;;;;;;5009092;28;20080;-71
2023/07/05 12:13:33;;;;;;;14.77;2.58;;;15.80;99.90;;;;;;4989447;28;20184;-73
2023/07/05 12:16:00;;;;;;;17.73;2.05;;;15.70;99.90;;;;;;5003073;28;20577;-71
2023/07/05 12:18:28;;;;;;;11.95;1.88;;;15.60;99.90;;;;;;5010663;28;20029;-72
2023/07/05 12:20:56;;;;;;;7.35;2.15;;;15.30;99.90;;;;;;5007771;28;20110;-71
2023/07/05 12:23:24;;;;;;;9.48;1.63;;;15.20;99.90;;;;;;5005871;28;20520;-71
2023/07/05 12:25:53;;;;;;;13.30;2.20;;;15.10;99.90;;;;;;4995831;28;20046;-71
2023/07/05 12:28:25;;;;;;;11.73;2.33;;;15.00;99.90;;;;;;4993547;28;20049;-72
2023/07/05 12:31:01;;;;;;;11.10;2.33;;;14.90;99.90;;;;;;5006541;28;20077;-72
2023/07/05 12:33:34;;;;;;;14.20;2.80;;;14.80;99.90;;;;;;5011394;28;20533;-73
2023/07/05 12:36:10;;;;;;;9.90;2.60;;;14.60;99.90;;;;;;5015672;28;20045;-71
2023/07/05 12:38:37;;;;;;;8.23;1.83;;;14.60;99.90;;;;;;5011426;28;20456;-72
2023/07/05 12:41:05;;;;;;;11.07;3.10;;;14.50;99.90;;;;;;5014831;28;20057;-73
2023/07/05 12:43:32;;;;;;;11.05;2.53;;;14.50;99.90;;;;;;5009748;28;20046;-71
2023/07/05 12:46:20;;;;;;;13.27;2.90;;;14.40;99.90;;;;;;5016368;28;20045;-71
2023/07/05 12:48:48;;;;;;;9.30;2.08;;;14.40;99.90;;;;;;5012962;28;20702;-72
2023/07/05 12:51:26;;;;;;;10.68;2.38;;;14.30;99.90;;;;;;5015078;28;20045;-74
2023/07/05 12:53:57;;;;;;;11.23;2.30;;;14.20;99.90;;;;;;5012496;28;20049;-71
2023/07/05 12:56:36;;;;;;;13.65;2.85;;;14.20;99.90;;;;;;5000336;28;20041;-71